sensor_id;sensor_type;location;lat;lon;timestamp;temperature;humidity
32097;DHT22;18610;49.916;8.284;2023-02-28T00:00:49;1.50;94.50
32097;DHT22;18610;49.916;8.284;2023-02-28T00:03:16;1.50;94.70
32097;DHT22;18610;49.916;8.284;2023-02-28T00:05:43;1.40;95.00
32097;DHT22;18610;49.916;8.284;2023-02-28T00:08:10;1.30;95.30
32097;DHT22;18610;49.916;8.284;2023-02-28T00:10:37;1.20;95.70
32097;DHT22;18610;49.916;8.284;2023-02-28T00:13:06;1.20;96.10
32097;DHT22;18610;49.916;8.284;2023-02-28T00:15:34;1.10;96.40
32097;DHT22;18610;49.916;8.284;2023-02-28T00:18:01;1.10;96.80
32097;DHT22;18610;49.916;8.284;2023-02-28T00:20:28;1.10;97.20
32097;DHT22;18610;49.916;8.284;2023-02-28T00:22:55;1.10;97.20
32097;DHT22;18610;49.916;8.284;2023-02-28T00:25:24;1.00;97.40
32097;DHT22;18610;49.916;8.284;2023-02-28T00:27:51;1.00;97.60
32097;DHT22;18610;49.916;8.284;2023-02-28T00:30:20;1.00;97.80
32097;DHT22;18610;49.916;8.284;2023-02-28T00:32:48;1.00;98.00
32097;DHT22;18610;49.916;8.284;2023-02-28T00:35:15;1.00;98.30
32097;DHT22;18610;49.916;8.284;2023-02-28T00:37:42;1.00;98.40
32097;DHT22;18610;49.916;8.284;2023-02-28T00:40:10;1.10;98.40
32097;DHT22;18610;49.916;8.284;2023-02-28T00:42:38;1.10;98.70
32097;DHT22;18610;49.916;8.284;2023-02-28T00:45:06;1.10;98.50
32097;DHT22;18610;49.916;8.284;2023-02-28T00:47:33;1.10;98.60
32097;DHT22;18610;49.916;8.284;2023-02-28T00:50:01;1.00;98.60
32097;DHT22;18610;49.916;8.284;2023-02-28T00:52:28;1.00;98.70
32097;DHT22;18610;49.916;8.284;2023-02-28T00:54:55;1.00;98.80
32097;DHT22;18610;49.916;8.284;2023-02-28T00:57:22;1.00;99.00
32097;DHT22;18610;49.916;8.284;2023-02-28T00:59:48;0.90;99.00
32097;DHT22;18610;49.916;8.284;2023-02-28T01:02:16;0.90;99.10
32097;DHT22;18610;49.916;8.284;2023-02-28T01:04:43;0.90;99.50
32097;DHT22;18610;49.916;8.284;2023-02-28T01:07:11;0.90;99.70
32097;DHT22;18610;49.916;8.284;2023-02-28T01:09:40;0.80;99.90
32097;DHT22;18610;49.916;8.284;2023-02-28T01:12:07;0.80;99.90
32097;DHT22;18610;49.916;8.284;2023-02-28T01:14:34;0.90;99.90
32097;DHT22;18610;49.916;8.284;2023-02-28T01:17:01;0.90;99.90
32097;DHT22;18610;49.916;8.284;2023-02-28T01:19:28;0.90;99.90
32097;DHT22;18610;49.916;8.284;2023-02-28T01:21:55;1.00;99.90
32097;DHT22;18610;49.916;8.284;2023-02-28T01:24:23;1.00;99.90
32097;DHT22;18610;49.916;8.284;2023-02-28T01:26:49;1.10;99.90
32097;DHT22;18610;49.916;8.284;2023-02-28T01:29:16;1.10;99.90
32097;DHT22;18610;49.916;8.284;2023-02-28T01:31:43;1.10;99.90
32097;DHT22;18610;49.916;8.284;2023-02-28T01:34:09;1.10;99.90
32097;DHT22;18610;49.916;8.284;2023-02-28T01:36:36;1.10;99.90
32097;DHT22;18610;49.916;8.284;2023-02-28T01:39:03;1.10;99.90
32097;DHT22;18610;49.916;8.284;2023-02-28T01:41:33;1.00;99.90
32097;DHT22;18610;49.916;8.284;2023-02-28T01:44:04;0.90;99.90
32097;DHT22;18610;49.916;8.284;2023-02-28T01:46:32;0.80;99.90
32097;DHT22;18610;49.916;8.284;2023-02-28T01:49:04;0.70;99.90
32097;DHT22;18610;49.916;8.284;2023-02-28T01:51:37;0.60;99.90
32097;DHT22;18610;49.916;8.284;2023-02-28T01:54:08;0.50;99.90
32097;DHT22;18610;49.916;8.284;2023-02-28T01:56:43;0.40;99.90
32097;DHT22;18610;49.916;8.284;2023-02-28T01:59:12;0.30;99.90
32097;DHT22;18610;49.916;8.284;2023-02-28T02:01:40;0.20;99.90
32097;DHT22;18610;49.916;8.284;2023-02-28T02:04:07;0.20;99.90
32097;DHT22;18610;49.916;8.284;2023-02-28T02:06:37;0.10;99.90
32097;DHT22;18610;49.916;8.284;2023-02-28T02:09:04;0.00;99.90
32097;DHT22;18610;49.916;8.284;2023-02-28T02:11:32;0.00;99.90
32097;DHT22;18610;49.916;8.284;2023-02-28T02:14:12;-0.10;99.90
32097;DHT22;18610;49.916;8.284;2023-02-28T02:16:53;-0.10;99.90
32097;DHT22;18610;49.916;8.284;2023-02-28T02:19:55;-0.10;99.90
32097;DHT22;18610;49.916;8.284;2023-02-28T02:22:43;-0.10;99.90
32097;DHT22;18610;49.916;8.284;2023-02-28T02:25:22;0.00;99.90
32097;DHT22;18610;49.916;8.284;2023-02-28T02:28:20;-0.10;99.90
32097;DHT22;18610;49.916;8.284;2023-02-28T02:31:06;-0.10;99.90
32097;DHT22;18610;49.916;8.284;2023-02-28T02:33:46;-0.10;99.90
32097;DHT22;18610;49.916;8.284;2023-02-28T02:36:22;-0.10;99.90
32097;DHT22;18610;49.916;8.284;2023-02-28T02:38:53;-0.10;99.90
32097;DHT22;18610;49.916;8.284;2023-02-28T02:41:26;-0.10;99.90
32097;DHT22;18610;49.916;8.284;2023-02-28T02:43:58;-0.20;99.90
32097;DHT22;18610;49.916;8.284;2023-02-28T02:46:29;-0.20;99.90
32097;DHT22;18610;49.916;8.284;2023-02-28T02:48:57;-0.20;99.90
32097;DHT22;18610;49.916;8.284;2023-02-28T02:51:28;-0.20;99.90
32097;DHT22;18610;49.916;8.284;2023-02-28T02:53:59;-0.20;99.90
32097;DHT22;18610;49.916;8.284;2023-02-28T02:56:29;-0.20;99.90
32097;DHT22;18610;49.916;8.284;2023-02-28T02:59:01;-0.20;99.90
32097;DHT22;18610;49.916;8.284;2023-02-28T03:01:30;-0.30;99.90
32097;DHT22;18610;49.916;8.284;2023-02-28T03:04:00;-0.30;99.90
32097;DHT22;18610;49.916;8.284;2023-02-28T03:06:29;-0.30;99.90
32097;DHT22;18610;49.916;8.284;2023-02-28T03:08:55;-0.30;99.90
32097;DHT22;18610;49.916;8.284;2023-02-28T03:11:22;-0.30;99.90
32097;DHT22;18610;49.916;8.284;2023-02-28T03:13:58;-0.40;99.90
32097;DHT22;18610;49.916;8.284;2023-02-28T03:16:35;-0.40;99.90
32097;DHT22;18610;49.916;8.284;2023-02-28T03:21:56;-0.40;99.90
32097;DHT22;18610;49.916;8.284;2023-02-28T03:24:30;-0.40;99.90
32097;DHT22;18610;49.916;8.284;2023-02-28T03:27:02;-0.40;99.90
32097;DHT22;18610;49.916;8.284;2023-02-28T03:29:34;-0.40;99.90
32097;DHT22;18610;49.916;8.284;2023-02-28T03:32:06;-0.40;99.90
32097;DHT22;18610;49.916;8.284;2023-02-28T03:34:38;-0.50;99.90
32097;DHT22;18610;49.916;8.284;2023-02-28T03:37:10;-0.50;99.90
32097;DHT22;18610;49.916;8.284;2023-02-28T03:39:42;-0.40;99.90
32097;DHT22;18610;49.916;8.284;2023-02-28T03:42:11;-0.50;99.90
32097;DHT22;18610;49.916;8.284;2023-02-28T03:44:41;-0.50;99.90
32097;DHT22;18610;49.916;8.284;2023-02-28T03:47:12;-0.50;99.90
32097;DHT22;18610;49.916;8.284;2023-02-28T03:49:46;-0.50;99.90
32097;DHT22;18610;49.916;8.284;2023-02-28T03:52:17;-0.50;99.90
32097;DHT22;18610;49.916;8.284;2023-02-28T03:54:47;-0.50;99.90
32097;DHT22;18610;49.916;8.284;2023-02-28T03:57:18;-0.50;99.90
32097;DHT22;18610;49.916;8.284;2023-02-28T03:59:52;-0.50;99.90
32097;DHT22;18610;49.916;8.284;2023-02-28T04:02:20;-0.60;99.90
32097;DHT22;18610;49.916;8.284;2023-02-28T04:04:47;-0.60;99.90
32097;DHT22;18610;49.916;8.284;2023-02-28T04:07:17;-0.60;99.90
32097;DHT22;18610;49.916;8.284;2023-02-28T04:09:44;-0.60;99.90
32097;DHT22;18610;49.916;8.284;2023-02-28T04:12:11;-0.60;99.90
32097;DHT22;18610;49.916;8.284;2023-02-28T04:14:37;-0.60;99.90
32097;DHT22;18610;49.916;8.284;2023-02-28T04:17:04;-0.60;99.90
32097;DHT22;18610;49.916;8.284;2023-02-28T04:19:31;-0.70;99.90
32097;DHT22;18610;49.916;8.284;2023-02-28T04:21:57;-0.70;99.90
32097;DHT22;18610;49.916;8.284;2023-02-28T04:24:27;-0.70;99.90
32097;DHT22;18610;49.916;8.284;2023-02-28T04:26:55;-0.70;99.90
32097;DHT22;18610;49.916;8.284;2023-02-28T04:29:24;-0.70;99.90
32097;DHT22;18610;49.916;8.284;2023-02-28T04:31:52;-0.70;99.90
32097;DHT22;18610;49.916;8.284;2023-02-28T04:34:19;-0.70;99.90
32097;DHT22;18610;49.916;8.284;2023-02-28T04:36:46;-0.70;99.90
32097;DHT22;18610;49.916;8.284;2023-02-28T04:39:14;-0.80;99.90
32097;DHT22;18610;49.916;8.284;2023-02-28T04:41:42;-0.80;99.90
32097;DHT22;18610;49.916;8.284;2023-02-28T04:44:09;-0.80;99.90
32097;DHT22;18610;49.916;8.284;2023-02-28T04:46:36;-0.80;99.90
32097;DHT22;18610;49.916;8.284;2023-02-28T04:49:03;-0.80;99.90
32097;DHT22;18610;49.916;8.284;2023-02-28T04:51:29;-0.80;99.90
32097;DHT22;18610;49.916;8.284;2023-02-28T04:53:56;-0.90;99.90
32097;DHT22;18610;49.916;8.284;2023-02-28T04:56:23;-0.90;99.90
32097;DHT22;18610;49.916;8.284;2023-02-28T04:58:51;-0.90;99.90
32097;DHT22;18610;49.916;8.284;2023-02-28T05:01:22;-0.90;99.90
32097;DHT22;18610;49.916;8.284;2023-02-28T05:03:49;-0.90;99.90
32097;DHT22;18610;49.916;8.284;2023-02-28T05:06:17;-0.90;99.90
32097;DHT22;18610;49.916;8.284;2023-02-28T05:08:43;-0.90;99.90
32097;DHT22;18610;49.916;8.284;2023-02-28T05:11:16;-0.90;99.90
32097;DHT22;18610;49.916;8.284;2023-02-28T05:13:43;-0.90;99.90
32097;DHT22;18610;49.916;8.284;2023-02-28T05:16:11;-0.80;99.90
32097;DHT22;18610;49.916;8.284;2023-02-28T05:18:38;-0.80;99.90
32097;DHT22;18610;49.916;8.284;2023-02-28T05:21:05;-0.80;99.90
32097;DHT22;18610;49.916;8.284;2023-02-28T05:23:32;-0.80;99.90
32097;DHT22;18610;49.916;8.284;2023-02-28T05:25:59;-0.80;99.90
32097;DHT22;18610;49.916;8.284;2023-02-28T05:28:25;-0.80;99.90
32097;DHT22;18610;49.916;8.284;2023-02-28T05:30:52;-0.80;99.90
32097;DHT22;18610;49.916;8.284;2023-02-28T05:33:20;-0.90;99.90
32097;DHT22;18610;49.916;8.284;2023-02-28T05:35:46;-0.90;99.90
32097;DHT22;18610;49.916;8.284;2023-02-28T05:38:13;-0.90;99.90
32097;DHT22;18610;49.916;8.284;2023-02-28T05:40:40;-0.90;99.90
32097;DHT22;18610;49.916;8.284;2023-02-28T05:43:10;-0.90;99.90
32097;DHT22;18610;49.916;8.284;2023-02-28T05:45:37;-0.90;99.90
32097;DHT22;18610;49.916;8.284;2023-02-28T05:48:04;-0.90;99.90
32097;DHT22;18610;49.916;8.284;2023-02-28T05:50:32;-0.90;99.90
32097;DHT22;18610;49.916;8.284;2023-02-28T05:52:58;-0.90;99.90
32097;DHT22;18610;49.916;8.284;2023-02-28T05:55:26;-0.90;99.90
32097;DHT22;18610;49.916;8.284;2023-02-28T05:57:52;-0.90;99.90
32097;DHT22;18610;49.916;8.284;2023-02-28T06:00:19;-0.90;99.90
32097;DHT22;18610;49.916;8.284;2023-02-28T06:02:46;-1.00;99.90
32097;DHT22;18610;49.916;8.284;2023-02-28T06:05:15;-1.00;99.90
32097;DHT22;18610;49.916;8.284;2023-02-28T06:07:43;-1.00;99.90
32097;DHT22;18610;49.916;8.284;2023-02-28T06:10:11;-1.10;99.90
32097;DHT22;18610;49.916;8.284;2023-02-28T06:12:38;-1.10;99.90
32097;DHT22;18610;49.916;8.284;2023-02-28T06:15:07;-1.10;99.90
32097;DHT22;18610;49.916;8.284;2023-02-28T06:17:34;-1.10;99.90
32097;DHT22;18610;49.916;8.284;2023-02-28T06:20:01;-1.10;99.90
32097;DHT22;18610;49.916;8.284;2023-02-28T06:22:28;-1.10;99.90
32097;DHT22;18610;49.916;8.284;2023-02-28T06:24:56;-1.10;99.90
32097;DHT22;18610;49.916;8.284;2023-02-28T06:27:23;-1.10;99.90
32097;DHT22;18610;49.916;8.284;2023-02-28T06:29:54;-1.10;99.90
32097;DHT22;18610;49.916;8.284;2023-02-28T06:32:21;-1.10;99.90
32097;DHT22;18610;49.916;8.284;2023-02-28T06:34:48;-1.10;99.90
32097;DHT22;18610;49.916;8.284;2023-02-28T06:37:15;-1.10;99.90
32097;DHT22;18610;49.916;8.284;2023-02-28T06:39:42;-1.00;99.90
32097;DHT22;18610;49.916;8.284;2023-02-28T06:42:10;-1.00;99.90
32097;DHT22;18610;49.916;8.284;2023-02-28T06:44:38;-1.00;99.90
32097;DHT22;18610;49.916;8.284;2023-02-28T06:47:05;-0.90;99.90
32097;DHT22;18610;49.916;8.284;2023-02-28T06:49:34;-0.80;99.90
32097;DHT22;18610;49.916;8.284;2023-02-28T06:52:02;-0.80;99.90
32097;DHT22;18610;49.916;8.284;2023-02-28T06:54:28;-0.70;99.90
32097;DHT22;18610;49.916;8.284;2023-02-28T06:56:57;-0.60;99.90
32097;DHT22;18610;49.916;8.284;2023-02-28T06:59:25;-0.50;99.90
32097;DHT22;18610;49.916;8.284;2023-02-28T07:01:51;-0.40;99.90
32097;DHT22;18610;49.916;8.284;2023-02-28T07:04:18;-0.30;99.90
32097;DHT22;18610;49.916;8.284;2023-02-28T07:06:45;-0.10;99.90
32097;DHT22;18610;49.916;8.284;2023-02-28T07:09:11;0.10;99.90
32097;DHT22;18610;49.916;8.284;2023-02-28T07:11:39;0.30;99.90
32097;DHT22;18610;49.916;8.284;2023-02-28T07:14:08;0.40;99.90
32097;DHT22;18610;49.916;8.284;2023-02-28T07:16:36;0.60;99.90
32097;DHT22;18610;49.916;8.284;2023-02-28T07:19:03;0.80;99.90
32097;DHT22;18610;49.916;8.284;2023-02-28T07:21:30;1.00;99.90
32097;DHT22;18610;49.916;8.284;2023-02-28T07:23:56;1.10;99.90
32097;DHT22;18610;49.916;8.284;2023-02-28T07:26:23;1.20;99.90
32097;DHT22;18610;49.916;8.284;2023-02-28T07:28:50;1.30;99.90
32097;DHT22;18610;49.916;8.284;2023-02-28T07:31:17;1.50;99.90
32097;DHT22;18610;49.916;8.284;2023-02-28T07:33:46;1.70;99.90
32097;DHT22;18610;49.916;8.284;2023-02-28T07:36:14;1.80;99.90
32097;DHT22;18610;49.916;8.284;2023-02-28T07:38:41;2.00;99.90
32097;DHT22;18610;49.916;8.284;2023-02-28T07:41:07;2.20;99.90
32097;DHT22;18610;49.916;8.284;2023-02-28T07:43:35;2.30;99.90
32097;DHT22;18610;49.916;8.284;2023-02-28T07:46:03;2.40;99.90
32097;DHT22;18610;49.916;8.284;2023-02-28T07:48:30;2.60;99.90
32097;DHT22;18610;49.916;8.284;2023-02-28T07:50:59;2.90;99.90
32097;DHT22;18610;49.916;8.284;2023-02-28T07:53:26;3.00;99.90
32097;DHT22;18610;49.916;8.284;2023-02-28T07:55:55;3.20;99.90
32097;DHT22;18610;49.916;8.284;2023-02-28T07:58:22;3.30;99.40
32097;DHT22;18610;49.916;8.284;2023-02-28T08:00:49;3.40;98.80
32097;DHT22;18610;49.916;8.284;2023-02-28T08:03:16;3.60;98.70
32097;DHT22;18610;49.916;8.284;2023-02-28T08:05:43;3.60;98.00
32097;DHT22;18610;49.916;8.284;2023-02-28T08:08:11;3.60;97.40
32097;DHT22;18610;49.916;8.284;2023-02-28T08:10:38;3.70;97.30
32097;DHT22;18610;49.916;8.284;2023-02-28T08:13:04;3.60;97.40
32097;DHT22;18610;49.916;8.284;2023-02-28T08:15:31;3.70;97.00
32097;DHT22;18610;49.916;8.284;2023-02-28T08:17:58;3.60;96.80
32097;DHT22;18610;49.916;8.284;2023-02-28T08:20:26;3.60;97.00
32097;DHT22;18610;49.916;8.284;2023-02-28T08:22:52;3.50;96.80
32097;DHT22;18610;49.916;8.284;2023-02-28T08:25:20;3.50;96.90
32097;DHT22;18610;49.916;8.284;2023-02-28T08:27:48;3.60;96.70
32097;DHT22;18610;49.916;8.284;2023-02-28T08:30:16;3.50;97.00
32097;DHT22;18610;49.916;8.284;2023-02-28T08:32:43;3.60;96.80
32097;DHT22;18610;49.916;8.284;2023-02-28T08:35:10;3.60;96.80
32097;DHT22;18610;49.916;8.284;2023-02-28T08:37:36;3.60;97.00
32097;DHT22;18610;49.916;8.284;2023-02-28T08:40:04;3.70;96.50
32097;DHT22;18610;49.916;8.284;2023-02-28T08:42:33;3.70;96.60
32097;DHT22;18610;49.916;8.284;2023-02-28T08:45:00;3.90;96.60
32097;DHT22;18610;49.916;8.284;2023-02-28T08:47:26;4.00;96.40
32097;DHT22;18610;49.916;8.284;2023-02-28T08:49:53;4.10;96.10
32097;DHT22;18610;49.916;8.284;2023-02-28T08:52:20;4.30;95.40
32097;DHT22;18610;49.916;8.284;2023-02-28T08:54:47;4.50;94.10
32097;DHT22;18610;49.916;8.284;2023-02-28T08:57:13;4.70;94.00
32097;DHT22;18610;49.916;8.284;2023-02-28T08:59:41;4.90;93.30
32097;DHT22;18610;49.916;8.284;2023-02-28T09:02:09;5.10;92.10
32097;DHT22;18610;49.916;8.284;2023-02-28T09:04:38;5.40;91.40
32097;DHT22;18610;49.916;8.284;2023-02-28T09:07:05;5.60;90.20
32097;DHT22;18610;49.916;8.284;2023-02-28T09:09:31;5.80;89.90
32097;DHT22;18610;49.916;8.284;2023-02-28T09:11:58;6.00;87.90
32097;DHT22;18610;49.916;8.284;2023-02-28T09:14:25;6.10;87.20
32097;DHT22;18610;49.916;8.284;2023-02-28T09:16:53;6.30;85.30
32097;DHT22;18610;49.916;8.284;2023-02-28T09:19:20;6.50;86.00
32097;DHT22;18610;49.916;8.284;2023-02-28T09:21:47;6.70;83.70
32097;DHT22;18610;49.916;8.284;2023-02-28T09:24:14;6.90;82.30
32097;DHT22;18610;49.916;8.284;2023-02-28T09:26:40;7.10;79.60
32097;DHT22;18610;49.916;8.284;2023-02-28T09:29:07;7.30;78.40
32097;DHT22;18610;49.916;8.284;2023-02-28T09:31:34;7.40;78.30
32097;DHT22;18610;49.916;8.284;2023-02-28T09:34:03;7.60;76.90
32097;DHT22;18610;49.916;8.284;2023-02-28T09:36:30;7.80;75.40
32097;DHT22;18610;49.916;8.284;2023-02-28T09:38:58;7.90;72.70
32097;DHT22;18610;49.916;8.284;2023-02-28T09:41:26;8.00;72.50
32097;DHT22;18610;49.916;8.284;2023-02-28T09:43:58;8.10;70.60
32097;DHT22;18610;49.916;8.284;2023-02-28T09:46:29;8.10;69.40
32097;DHT22;18610;49.916;8.284;2023-02-28T09:48:59;8.20;68.80
32097;DHT22;18610;49.916;8.284;2023-02-28T09:51:47;8.30;68.50
32097;DHT22;18610;49.916;8.284;2023-02-28T09:54:19;8.40;66.60
32097;DHT22;18610;49.916;8.284;2023-02-28T09:56:48;8.50;65.30
32097;DHT22;18610;49.916;8.284;2023-02-28T09:59:29;8.60;64.80
32097;DHT22;18610;49.916;8.284;2023-02-28T10:02:04;8.80;63.70
32097;DHT22;18610;49.916;8.284;2023-02-28T10:04:42;8.90;63.70
32097;DHT22;18610;49.916;8.284;2023-02-28T10:07:21;8.90;61.00
32097;DHT22;18610;49.916;8.284;2023-02-28T10:09:53;9.00;62.20
32097;DHT22;18610;49.916;8.284;2023-02-28T10:12:21;9.10;60.70
32097;DHT22;18610;49.916;8.284;2023-02-28T10:14:51;9.20;60.60
32097;DHT22;18610;49.916;8.284;2023-02-28T10:17:22;9.30;61.10
32097;DHT22;18610;49.916;8.284;2023-02-28T10:19:56;9.30;60.00
32097;DHT22;18610;49.916;8.284;2023-02-28T10:22:30;9.40;60.40
32097;DHT22;18610;49.916;8.284;2023-02-28T10:25:00;9.30;59.20
32097;DHT22;18610;49.916;8.284;2023-02-28T10:27:30;9.20;60.60
32097;DHT22;18610;49.916;8.284;2023-02-28T10:29:59;9.20;60.00
32097;DHT22;18610;49.916;8.284;2023-02-28T10:32:28;9.00;59.80
32097;DHT22;18610;49.916;8.284;2023-02-28T10:35:00;8.90;61.00
32097;DHT22;18610;49.916;8.284;2023-02-28T10:37:28;8.80;59.50
32097;DHT22;18610;49.916;8.284;2023-02-28T10:39:57;8.70;59.70
32097;DHT22;18610;49.916;8.284;2023-02-28T10:42:25;8.60;59.80
32097;DHT22;18610;49.916;8.284;2023-02-28T10:45:13;8.50;60.40
32097;DHT22;18610;49.916;8.284;2023-02-28T10:47:49;8.60;60.90
32097;DHT22;18610;49.916;8.284;2023-02-28T10:50:33;8.70;61.60
32097;DHT22;18610;49.916;8.284;2023-02-28T10:55:57;8.80;59.20
32097;DHT22;18610;49.916;8.284;2023-02-28T10:58:26;8.70;59.30
32097;DHT22;18610;49.916;8.284;2023-02-28T11:00:54;8.60;59.20
32097;DHT22;18610;49.916;8.284;2023-02-28T11:03:25;8.60;59.00
32097;DHT22;18610;49.916;8.284;2023-02-28T11:05:54;8.50;59.90
32097;DHT22;18610;49.916;8.284;2023-02-28T11:08:23;8.60;59.60
32097;DHT22;18610;49.916;8.284;2023-02-28T11:10:54;8.70;59.50
32097;DHT22;18610;49.916;8.284;2023-02-28T11:13:33;8.90;58.70
32097;DHT22;18610;49.916;8.284;2023-02-28T11:16:03;9.20;57.90
32097;DHT22;18610;49.916;8.284;2023-02-28T11:18:36;9.30;57.50
32097;DHT22;18610;49.916;8.284;2023-02-28T11:21:04;9.70;56.80
32097;DHT22;18610;49.916;8.284;2023-02-28T11:23:34;10.00;56.30
32097;DHT22;18610;49.916;8.284;2023-02-28T11:26:04;10.30;56.80
32097;DHT22;18610;49.916;8.284;2023-02-28T11:28:36;10.70;54.80
32097;DHT22;18610;49.916;8.284;2023-02-28T11:31:09;10.90;54.40
32097;DHT22;18610;49.916;8.284;2023-02-28T11:33:42;11.30;54.20
32097;DHT22;18610;49.916;8.284;2023-02-28T11:36:12;11.40;52.40
32097;DHT22;18610;49.916;8.284;2023-02-28T11:38:41;11.50;52.60
32097;DHT22;18610;49.916;8.284;2023-02-28T11:41:20;11.60;51.20
32097;DHT22;18610;49.916;8.284;2023-02-28T11:44:01;11.70;51.50
32097;DHT22;18610;49.916;8.284;2023-02-28T11:46:35;11.70;50.70
32097;DHT22;18610;49.916;8.284;2023-02-28T11:49:15;11.60;50.60
32097;DHT22;18610;49.916;8.284;2023-02-28T11:51:48;11.50;49.80
32097;DHT22;18610;49.916;8.284;2023-02-28T11:54:48;11.60;50.70
32097;DHT22;18610;49.916;8.284;2023-02-28T11:57:29;11.70;50.70
32097;DHT22;18610;49.916;8.284;2023-02-28T12:00:00;11.90;50.40
32097;DHT22;18610;49.916;8.284;2023-02-28T12:02:30;12.00;48.70
32097;DHT22;18610;49.916;8.284;2023-02-28T12:05:18;12.00;49.00
32097;DHT22;18610;49.916;8.284;2023-02-28T12:08:00;12.10;48.60
32097;DHT22;18610;49.916;8.284;2023-02-28T12:10:33;12.10;48.20
32097;DHT22;18610;49.916;8.284;2023-02-28T12:13:12;11.90;48.10
32097;DHT22;18610;49.916;8.284;2023-02-28T12:16:12;11.90;48.40
32097;DHT22;18610;49.916;8.284;2023-02-28T12:18:53;12.00;48.50
32097;DHT22;18610;49.916;8.284;2023-02-28T12:21:30;12.10;48.60
32097;DHT22;18610;49.916;8.284;2023-02-28T12:24:22;12.20;49.00
32097;DHT22;18610;49.916;8.284;2023-02-28T12:26:53;12.30;48.50
32097;DHT22;18610;49.916;8.284;2023-02-28T12:29:24;12.30;48.10
32097;DHT22;18610;49.916;8.284;2023-02-28T12:31:58;12.40;48.00
32097;DHT22;18610;49.916;8.284;2023-02-28T12:34:30;12.60;47.90
32097;DHT22;18610;49.916;8.284;2023-02-28T12:37:02;12.60;47.50
32097;DHT22;18610;49.916;8.284;2023-02-28T12:39:33;12.70;47.50
32097;DHT22;18610;49.916;8.284;2023-02-28T12:42:05;13.00;47.80
32097;DHT22;18610;49.916;8.284;2023-02-28T12:44:36;13.20;47.40
32097;DHT22;18610;49.916;8.284;2023-02-28T12:47:09;13.20;46.20
32097;DHT22;18610;49.916;8.284;2023-02-28T12:49:40;13.40;46.80
32097;DHT22;18610;49.916;8.284;2023-02-28T12:52:11;13.60;46.50
32097;DHT22;18610;49.916;8.284;2023-02-28T12:54:48;13.90;46.30
32097;DHT22;18610;49.916;8.284;2023-02-28T12:57:19;14.10;44.60
32097;DHT22;18610;49.916;8.284;2023-02-28T12:59:52;14.20;43.80
32097;DHT22;18610;49.916;8.284;2023-02-28T13:02:47;14.40;44.60
32097;DHT22;18610;49.916;8.284;2023-02-28T13:05:42;14.50;43.80
32097;DHT22;18610;49.916;8.284;2023-02-28T13:11:24;14.80;43.40
32097;DHT22;18610;49.916;8.284;2023-02-28T13:13:59;14.90;43.20
32097;DHT22;18610;49.916;8.284;2023-02-28T13:16:27;14.90;42.50
32097;DHT22;18610;49.916;8.284;2023-02-28T13:19:08;14.80;42.40
32097;DHT22;18610;49.916;8.284;2023-02-28T13:21:43;14.80;42.90
32097;DHT22;18610;49.916;8.284;2023-02-28T13:24:11;14.80;42.80
32097;DHT22;18610;49.916;8.284;2023-02-28T13:27:36;14.80;42.80
32097;DHT22;18610;49.916;8.284;2023-02-28T13:33:25;15.10;42.70
32097;DHT22;18610;49.916;8.284;2023-02-28T13:38:50;15.40;40.80
32097;DHT22;18610;49.916;8.284;2023-02-28T13:41:40;15.50;41.60
32097;DHT22;18610;49.916;8.284;2023-02-28T13:44:10;15.40;40.60
32097;DHT22;18610;49.916;8.284;2023-02-28T13:47:20;15.40;40.30
32097;DHT22;18610;49.916;8.284;2023-02-28T13:49:47;15.40;40.90
32097;DHT22;18610;49.916;8.284;2023-02-28T13:52:18;15.70;41.40
32097;DHT22;18610;49.916;8.284;2023-02-28T13:57:54;16.30;39.70
32097;DHT22;18610;49.916;8.284;2023-02-28T14:00:35;16.60;40.00
32097;DHT22;18610;49.916;8.284;2023-02-28T14:03:17;16.70;39.10
32097;DHT22;18610;49.916;8.284;2023-02-28T14:05:46;16.70;38.70
32097;DHT22;18610;49.916;8.284;2023-02-28T14:08:16;16.80;38.80
32097;DHT22;18610;49.916;8.284;2023-02-28T14:10:45;17.00;38.20
32097;DHT22;18610;49.916;8.284;2023-02-28T14:15:59;16.90;38.20
32097;DHT22;18610;49.916;8.284;2023-02-28T14:18:30;16.90;37.80
32097;DHT22;18610;49.916;8.284;2023-02-28T14:21:03;16.70;37.20
32097;DHT22;18610;49.916;8.284;2023-02-28T14:23:54;16.70;37.60
32097;DHT22;18610;49.916;8.284;2023-02-28T14:29:35;16.90;37.70
32097;DHT22;18610;49.916;8.284;2023-02-28T14:32:11;17.20;37.40
32097;DHT22;18610;49.916;8.284;2023-02-28T14:34:48;17.40;37.10
32097;DHT22;18610;49.916;8.284;2023-02-28T14:37:20;17.50;36.80
32097;DHT22;18610;49.916;8.284;2023-02-28T14:39:49;17.60;36.70
32097;DHT22;18610;49.916;8.284;2023-02-28T14:42:29;17.60;36.20
32097;DHT22;18610;49.916;8.284;2023-02-28T14:44:56;17.60;36.30
32097;DHT22;18610;49.916;8.284;2023-02-28T14:47:27;17.60;36.40
32097;DHT22;18610;49.916;8.284;2023-02-28T14:49:54;17.60;36.60
32097;DHT22;18610;49.916;8.284;2023-02-28T14:52:22;17.60;36.10
32097;DHT22;18610;49.916;8.284;2023-02-28T14:54:52;17.60;36.70
32097;DHT22;18610;49.916;8.284;2023-02-28T14:57:25;17.70;36.40
32097;DHT22;18610;49.916;8.284;2023-02-28T15:00:00;17.60;35.80
32097;DHT22;18610;49.916;8.284;2023-02-28T15:02:33;17.50;35.90
32097;DHT22;18610;49.916;8.284;2023-02-28T15:05:02;17.40;36.20
32097;DHT22;18610;49.916;8.284;2023-02-28T15:07:36;17.50;36.20
32097;DHT22;18610;49.916;8.284;2023-02-28T15:10:15;17.80;35.70
32097;DHT22;18610;49.916;8.284;2023-02-28T15:12:45;17.80;36.10
32097;DHT22;18610;49.916;8.284;2023-02-28T15:15:16;17.80;36.20
32097;DHT22;18610;49.916;8.284;2023-02-28T15:17:46;18.00;35.80
32097;DHT22;18610;49.916;8.284;2023-02-28T15:20:17;18.10;35.70
32097;DHT22;18610;49.916;8.284;2023-02-28T15:22:46;18.20;35.60
32097;DHT22;18610;49.916;8.284;2023-02-28T15:25:16;18.20;35.80
32097;DHT22;18610;49.916;8.284;2023-02-28T15:27:47;18.40;35.60
32097;DHT22;18610;49.916;8.284;2023-02-28T15:30:17;18.50;35.00
32097;DHT22;18610;49.916;8.284;2023-02-28T15:33:02;18.60;34.70
32097;DHT22;18610;49.916;8.284;2023-02-28T15:35:31;18.80;34.40
32097;DHT22;18610;49.916;8.284;2023-02-28T15:38:01;18.80;34.10
32097;DHT22;18610;49.916;8.284;2023-02-28T15:40:32;19.00;34.10
32097;DHT22;18610;49.916;8.284;2023-02-28T15:43:06;19.20;33.70
32097;DHT22;18610;49.916;8.284;2023-02-28T15:45:39;19.10;33.40
32097;DHT22;18610;49.916;8.284;2023-02-28T15:48:18;19.30;33.10
32097;DHT22;18610;49.916;8.284;2023-02-28T15:50:48;19.30;33.40
32097;DHT22;18610;49.916;8.284;2023-02-28T15:53:18;19.40;33.30
32097;DHT22;18610;49.916;8.284;2023-02-28T15:55:52;19.50;33.50
32097;DHT22;18610;49.916;8.284;2023-02-28T15:58:20;19.60;33.50
32097;DHT22;18610;49.916;8.284;2023-02-28T16:01:07;19.90;33.10
32097;DHT22;18610;49.916;8.284;2023-02-28T16:03:40;20.10;32.70
32097;DHT22;18610;49.916;8.284;2023-02-28T16:06:32;20.30;33.00
32097;DHT22;18610;49.916;8.284;2023-02-28T16:09:00;20.30;33.40
32097;DHT22;18610;49.916;8.284;2023-02-28T16:11:26;20.10;32.90
32097;DHT22;18610;49.916;8.284;2023-02-28T16:13:53;20.00;33.10
32097;DHT22;18610;49.916;8.284;2023-02-28T16:16:21;20.10;32.80
32097;DHT22;18610;49.916;8.284;2023-02-28T16:18:50;20.00;32.90
32097;DHT22;18610;49.916;8.284;2023-02-28T16:21:17;19.70;33.10
32097;DHT22;18610;49.916;8.284;2023-02-28T16:23:44;19.40;33.10